Terminal Aerodrome Forecast
Issued by NWS

Home | Current Version | Previous Version | Text Only | Print | Product List | Glossary On
Versions: 1 2 3 4 5 6 7 8 9 10 11 12 13 14 15 16 17 18 19 20 21 22 23 24
000
FTUS46 KMTR 202100 AAA
TAFSFO
TAF AMD
KSFO 202110Z 2021/2124 07005KT P6SM SCT200
     FM202200 30015G20KT P6SM SCT200
     FM210400 29010KT P6SM FEW012 SCT200
     FM211800 30012KT P6SM BKN200=

USA.gov is the U.S. government's official web portal to all federal, state and local government web resources and services.